Ryther cum Ossendyke, United Kingdom

4:10 PM BST on August 30, 2016 (GMT +0100)
Woodthorpe, York, UK | | Change Station

Elev 56 ft 53.93 °N, 1.14 °W | Updated 50 seconds ago

Mostly Cloudy
Mostly Cloudy
76.4 °F
Feels Like 78 °F
N
6.0
Wind Variable Wind from WSW
Gusts 13.0 mph

Today
High -- | Low -- °F
--% Chance of Precip.
Yesterday
High -- | Low -- °F
Precip. -- in
Pressure 30.15 in
Visibility 6.2 miles
Clouds Few 3000 ft
Mostly Cloudy 22000 ft
Heat Index 78 °F
Dew Point 60 °F
Humidity 58%
Rainfall 0.00 in
Snow Depth Not available.
6:10 AM 7:58 PM
Waning Crescent, 3% visible
METAR EGXU 301450Z 24008KT 9999 FEW030 BKN220 22/14 Q1021 BLU NOSIG
Pressure 30.15 in
Visibility 6.2 miles
Clouds Few 3000 ft
Mostly Cloudy 22000 ft
Heat Index 78 °F
Dew Point 60 °F
Humidity 58%
Rainfall 0.00 in
Snow Depth Not available.
6:10 AM 7:58 PM
Waning Crescent, 3% visible
METAR EGXU 301450Z 24008KT 9999 FEW030 BKN220 22/14 Q1021 BLU NOSIG

10-Day Weather Forecast

×

Almanac

Astronomy

Aug. 30, 2016 Rise Set
Actual Time
Civil Twilight
Nautical Twilight
Astronomical Twilight
Moon
Length of Visible Light
Length of Day
Tomorrow will be .
, % of the Moon is Illuminated

Today's Extremes

Country Highs Country Lows

Community

WunderPhotos

Upload Photos

1,935,853 photos uploaded!

WunderBlog® & News

Nearby

Air Quality

  Air Quality AQ Index Pollutant
Not available.

Snow Depth

Station Depth Elevation

Earthquake Activity

City Distance Mag. Time & Date
Minimum magnitude displayed is 2.5.

Coastal Water Temperatures

Place Temperature

Stations

Nearby Weather Stations

Station Location Temp. Windchill Dew Point Humidity Wind Precip. Elev Updated Type